createdAt,value
2022-11-03T00:03:27.313Z,100247.34
2022-11-03T00:08:28.953Z,100231.88
2022-11-03T00:13:30.775Z,100233.88
2022-11-03T00:18:32.894Z,100222.69
2022-11-03T00:23:37.125Z,100230.47
2022-11-03T00:28:40.488Z,100233.63
2022-11-03T00:33:43.075Z,100235.53
2022-11-03T00:38:45.616Z,100211.41
2022-11-03T00:43:48.226Z,100210.56
2022-11-03T00:48:50.773Z,100198.31
2022-11-03T00:53:53.737Z,100203.53
2022-11-03T00:58:57.395Z,100209.56
2022-11-03T01:04:17.906Z,100217.34
2022-11-03T01:09:22.488Z,100203.91
2022-11-03T01:14:26.309Z,100204.00
2022-11-03T01:19:28.209Z,100188.56
2022-11-03T01:24:29.847Z,100183.31
2022-11-03T01:29:31.514Z,100177.47
2022-11-03T01:34:33.262Z,100172.34
2022-11-03T01:39:34.868Z,100170.44
2022-11-03T01:44:47.643Z,100166.06
2022-11-03T01:50:07.567Z,100163.88
2022-11-03T01:55:13.826Z,100163.06
2022-11-03T02:00:15.966Z,100158.63
2022-11-03T02:05:19.221Z,100150.97
2022-11-03T02:10:21.518Z,100136.28
2022-11-03T02:15:24.053Z,100147.66
2022-11-03T02:20:28.690Z,100145.19
2022-11-03T02:25:47.474Z,100129.78
2022-11-03T02:30:49.017Z,100119.25
2022-11-03T02:36:03.738Z,100107.44
2022-11-03T02:41:08.885Z,100106.75
2022-11-03T02:46:13.655Z,100097.19
2022-11-03T02:51:15.401Z,100083.56
2022-11-03T02:56:24.811Z,100082.03
2022-11-03T03:01:47.478Z,100078.25
2022-11-03T03:06:55.805Z,100076.44
2022-11-03T03:11:59.138Z,100062.31
2022-11-03T03:17:05.275Z,100066.53
2022-11-03T03:22:21.799Z,100056.53
2022-11-03T03:27:27.615Z,100043.59
2022-11-03T03:32:34.016Z,100043.59
2022-11-03T03:37:38.217Z,100040.50
2022-11-03T03:42:41.857Z,100024.09
2022-11-03T03:47:43.841Z,100018.06
2022-11-03T03:52:45.451Z,100020.78
2022-11-03T03:57:47.069Z,100019.91
2022-11-03T04:02:48.741Z,100015.47
2022-11-03T04:07:50.483Z,100015.56
2022-11-03T04:13:10.621Z,100002.81
2022-11-03T04:18:31.154Z,99999.53
2022-11-03T04:23:32.770Z,100001.53
2022-11-03T04:28:34.507Z,99996.97
2022-11-03T04:33:36.160Z,99993.63
2022-11-03T04:38:38.096Z,99979.72
2022-11-03T04:43:39.769Z,99980.47
2022-11-03T04:48:41.854Z,99975.25
2022-11-03T04:54:18.505Z,99972.41
2022-11-03T04:59:20.144Z,99958.38
2022-11-03T05:04:21.817Z,99949.94
2022-11-03T05:09:28.987Z,99938.69
2022-11-03T05:14:32.275Z,99939.22
2022-11-03T05:19:40.242Z,99929.66
2022-11-03T05:24:42.528Z,99930.44
2022-11-03T05:29:44.636Z,99924.56
2022-11-03T05:34:48.450Z,99916.59
2022-11-03T05:39:51.273Z,99899.88
2022-11-03T05:44:52.896Z,99894.91
2022-11-03T05:50:01.973Z,99896.19
2022-11-03T05:55:04.110Z,99890.50
2022-11-03T06:00:21.857Z,99888.00
2022-11-03T06:05:25.796Z,99888.41
2022-11-03T06:10:31.577Z,99888.22
2022-11-03T06:15:37.040Z,99882.97
2022-11-03T06:20:39.607Z,99887.41
2022-11-03T06:25:43.405Z,99878.56
2022-11-03T06:30:46.347Z,99862.09
2022-11-03T06:35:51.029Z,99863.34
2022-11-03T06:40:53.645Z,99851.75
2022-11-03T06:45:58.704Z,99850.41
2022-11-03T06:51:01.199Z,99847.84
2022-11-03T06:56:02.953Z,99846.31
2022-11-03T07:01:14.971Z,99845.75
2022-11-03T07:06:24.743Z,99840.38
2022-11-03T07:11:28.430Z,99843.00
2022-11-03T07:16:35.524Z,99836.88
2022-11-03T07:21:48.600Z,99807.44
2022-11-03T07:27:00.085Z,99798.41
2022-11-03T07:32:02.369Z,99801.69
2022-11-03T07:37:04.077Z,99795.22
2022-11-03T07:42:15.474Z,99794.28
2022-11-03T07:47:26.398Z,99764.75
2022-11-03T07:52:28.097Z,99759.94
2022-11-03T07:57:31.577Z,99746.34
2022-11-03T08:02:36.682Z,99743.94
2022-11-03T08:07:38.411Z,99747.16
2022-11-03T08:12:40.033Z,99744.13
2022-11-03T08:17:41.710Z,99715.19
2022-11-03T08:22:49.848Z,99708.06
2022-11-03T08:28:05.276Z,99705.47
2022-11-03T08:33:07.200Z,99707.94
2022-11-03T08:38:09.372Z,99702.03
2022-11-03T08:43:11.237Z,99698.41
2022-11-03T08:48:13.834Z,99706.47
2022-11-03T08:53:15.576Z,99693.94
2022-11-03T08:58:17.225Z,99697.94
2022-11-03T09:03:18.885Z,99692.28
2022-11-03T09:13:42.172Z,99643.84
2022-11-03T09:18:43.928Z,99653.69
2022-11-03T09:23:45.536Z,99641.31
2022-11-03T09:28:47.595Z,99628.75
2022-11-03T09:33:49.201Z,99627.47
2022-11-03T09:38:51.139Z,99615.22
2022-11-03T09:43:54.444Z,99609.84
2022-11-03T09:48:56.778Z,99597.88
2022-11-03T09:54:03.676Z,99584.22
2022-11-03T09:59:17.275Z,99574.97
2022-11-03T10:04:29.285Z,99560.09
2022-11-03T10:09:30.920Z,99541.38
2022-11-03T10:14:32.576Z,99524.00
2022-11-03T10:19:34.203Z,99489.47
2022-11-03T10:24:36.037Z,99502.34
2022-11-03T10:29:39.919Z,99494.59
2022-11-03T10:34:42.944Z,99489.59
2022-11-03T10:39:45.452Z,99483.84
2022-11-03T10:44:47.923Z,99467.88
2022-11-03T10:49:49.629Z,99443.59
2022-11-03T10:54:53.681Z,99431.34
2022-11-03T10:59:56.071Z,99422.59
2022-11-03T11:05:03.109Z,99405.38
2022-11-03T11:10:13.469Z,99389.13
2022-11-03T11:15:50.247Z,99376.97
2022-11-03T11:20:51.875Z,99375.59
2022-11-03T11:26:11.864Z,99361.91
2022-11-03T11:31:22.863Z,99345.25
2022-11-03T11:36:25.581Z,99338.41
2022-11-03T11:42:05.161Z,99336.72
2022-11-03T11:47:27.933Z,99332.22
2022-11-03T11:52:30.436Z,99315.75
2022-11-03T11:57:35.089Z,99311.13
2022-11-03T12:02:36.735Z,99312.75
2022-11-03T12:07:39.566Z,99308.75
2022-11-03T12:12:41.254Z,99306.38
2022-11-03T12:17:42.939Z,99281.81
2022-11-03T12:22:44.703Z,99272.91
2022-11-03T12:27:46.360Z,99242.00
2022-11-03T12:32:48.087Z,99228.78
2022-11-03T12:37:49.712Z,99209.50
2022-11-03T12:42:51.402Z,99194.59
2022-11-03T12:47:53.015Z,99193.53
2022-11-03T12:52:54.724Z,99197.00
2022-11-03T12:57:56.392Z,99200.84
2022-11-03T13:02:58.163Z,99197.16
2022-11-03T13:07:59.795Z,99180.94
2022-11-03T13:13:01.449Z,99174.13
2022-11-03T13:18:14.325Z,99161.63
2022-11-03T13:23:18.779Z,99141.50
2022-11-03T13:28:23.629Z,99115.44
2022-11-03T13:33:25.253Z,99104.84
2022-11-03T13:38:26.871Z,99086.34
2022-11-03T13:43:29.155Z,99076.13
2022-11-03T13:49:33.983Z,99065.06
2022-11-03T13:59:30.064Z,99047.06
2022-11-03T14:04:47.495Z,99031.94
2022-11-03T14:09:49.119Z,99012.19
2022-11-03T14:14:50.730Z,98997.91
2022-11-03T14:19:55.554Z,99007.06
2022-11-03T14:25:01.431Z,98997.09
2022-11-03T14:30:04.606Z,98969.78
2022-11-03T14:35:07.687Z,98956.00
2022-11-03T14:40:30.338Z,98955.75
2022-11-03T14:45:32.017Z,98986.69
2022-11-03T14:50:33.704Z,98977.06
2022-11-03T14:55:35.331Z,98973.59
2022-11-03T15:00:36.978Z,98966.97
2022-11-03T15:05:44.539Z,98969.44
2022-11-03T15:10:46.501Z,98970.19
2022-11-03T15:15:48.131Z,98954.09
2022-11-03T15:20:49.990Z,98949.34
2022-11-03T15:25:51.611Z,98934.41
2022-11-03T15:30:53.238Z,98942.38
2022-11-03T15:35:54.963Z,98944.84
2022-11-03T15:41:15.459Z,98945.13
2022-11-03T15:46:18.388Z,98932.25
2022-11-03T15:51:20.077Z,98906.31
2022-11-03T15:56:21.691Z,98892.53
2022-11-03T16:01:23.603Z,98886.31
2022-11-03T16:06:46.475Z,98875.28
2022-11-03T16:11:47.023Z,98856.72
2022-11-03T16:16:48.865Z,98843.88
2022-11-03T16:21:51.724Z,98826.41
2022-11-03T16:26:53.484Z,98820.69
2022-11-03T16:31:55.251Z,98809.03
2022-11-03T16:36:58.145Z,98798.81
2022-11-03T16:42:02.900Z,98812.94
2022-11-03T16:47:05.600Z,98799.28
2022-11-03T16:52:09.140Z,98793.81
2022-11-03T16:57:12.359Z,98799.53
2022-11-03T17:02:16.528Z,98786.13
2022-11-03T17:07:19.739Z,98787.41
2022-11-03T17:12:21.583Z,98759.53
2022-11-03T17:17:23.178Z,98749.16
2022-11-03T17:22:24.906Z,98740.59
2022-11-03T17:27:38.643Z,98728.28
2022-11-03T17:32:44.379Z,98716.38
2022-11-03T17:37:46.068Z,98714.38
2022-11-03T17:42:49.423Z,98704.41
2022-11-03T17:47:51.897Z,98688.13
2022-11-03T17:52:54.153Z,98683.50
2022-11-03T17:57:59.185Z,98691.81
2022-11-03T18:03:01.511Z,98681.47
2022-11-03T18:08:08.399Z,98678.53
2022-11-03T18:13:16.683Z,98668.16
2022-11-03T18:18:20.697Z,98665.22
2022-11-03T18:23:27.053Z,98663.91
2022-11-03T18:28:29.189Z,98643.78
2022-11-03T18:33:36.494Z,98636.56
2022-11-03T18:38:41.376Z,98620.19
2022-11-03T18:43:43.298Z,98615.16
2022-11-03T18:48:45.047Z,98613.50
2022-11-03T18:53:46.805Z,98643.91
2022-11-03T18:58:52.671Z,98646.41
2022-11-03T19:03:54.515Z,98622.00
2022-11-03T19:09:00.041Z,98616.28
2022-11-03T19:14:01.886Z,98612.00
2022-11-03T19:19:03.762Z,98607.81
2022-11-03T19:24:05.566Z,98597.50
2022-11-03T19:29:13.295Z,98598.69
2022-11-03T19:34:18.583Z,98593.59
2022-11-03T19:39:23.462Z,98585.50
2022-11-03T19:44:25.193Z,98572.44
2022-11-03T19:49:27.216Z,98558.69
2022-11-03T19:54:29.447Z,98549.91
2022-11-03T19:59:31.448Z,98543.91
2022-11-03T20:04:33.065Z,98530.25
2022-11-03T20:09:36.360Z,98534.38
2022-11-03T20:14:38.720Z,98529.56
2022-11-03T20:19:43.829Z,98528.78
2022-11-03T20:24:50.346Z,98519.16
2022-11-03T20:29:52.671Z,98505.38
2022-11-03T20:34:56.134Z,98494.66
2022-11-03T20:39:58.473Z,98491.69
2022-11-03T20:45:00.416Z,98496.31
2022-11-03T20:50:02.036Z,98497.44
2022-11-03T20:55:22.428Z,98484.16
2022-11-03T21:00:29.471Z,98487.31
2022-11-03T21:05:31.876Z,98490.06
2022-11-03T21:10:33.541Z,98494.34
2022-11-03T21:16:22.544Z,98493.59
2022-11-03T21:21:20.713Z,98488.97
2022-11-03T21:26:23.054Z,98496.81
2022-11-03T21:31:24.659Z,98506.75
2022-11-03T21:36:26.295Z,98517.94
2022-11-03T21:41:46.520Z,98501.03
2022-11-03T21:46:49.174Z,98534.84
2022-11-03T21:51:50.815Z,98518.91
2022-11-03T21:56:52.605Z,98526.63
2022-11-03T22:01:55.246Z,98550.53
2022-11-03T22:06:58.712Z,98567.41
2022-11-03T22:12:00.981Z,98566.66
2022-11-03T22:17:02.614Z,98572.34
2022-11-03T22:22:31.651Z,98574.69
2022-11-03T22:27:34.589Z,98544.97
2022-11-03T22:32:37.009Z,98547.56
2022-11-03T22:42:58.100Z,98565.38
2022-11-03T22:47:59.691Z,98580.75
2022-11-03T22:53:21.287Z,98572.75
2022-11-03T22:58:27.840Z,98587.91
2022-11-03T23:03:34.311Z,98599.94
2022-11-03T23:08:37.910Z,98613.78
2022-11-03T23:13:39.539Z,98580.84
2022-11-03T23:19:00.538Z,98576.69
2022-11-03T23:24:21.471Z,98597.41
2022-11-03T23:29:23.073Z,98619.53
2022-11-03T23:34:25.191Z,98625.34
2022-11-03T23:39:26.795Z,98635.56
2022-11-03T23:44:48.377Z,98636.63
2022-11-03T23:49:49.973Z,98647.13
2022-11-03T23:54:51.660Z,98643.06
2022-11-03T23:59:53.286Z,98639.94
